HAZ8821 ZSHC-ZSYT
Flight info
| Callsign | HAZ8821 |
|---|---|
| Flight time | N/A |
| Altitude | 29100 |
| Route | SUPAR8D SUPAR B221 XDX H28 URBAD W172 FD H101 P449 |
| Aircraft | A320/M-SDE3FGHIRWY/LB1 |
Departure
| Time | 2026-05-05 02:24 |
|---|---|
| Airport | Hangzhou Xiaoshan International Airport (ZSHC) |
Arrival
| Time | N/A |
|---|---|
| Airport | Yantai Penglai International Airport (ZSYT) |
| Time | Latitude | Longitude | Altitude | Speed | Heading |
|---|---|---|---|---|---|
| 2026-05-05 02:01 | 30.24121 | 120.42803 | 31 ft | 0 kts | 234° |
| 2026-05-05 02:13 | 30.24127 | 120.42813 | 32 ft | 3 kts | 234° |
| 2026-05-05 02:13 | 30.24139 | 120.42832 | 32 ft | 3 kts | 236° |
| 2026-05-05 02:13 | 30.24147 | 120.42852 | 31 ft | 3 kts | 278° |
| 2026-05-05 02:14 | 30.24139 | 120.42871 | 29 ft | 3 kts | 323° |
| 2026-05-05 02:14 | 30.24121 | 120.42884 | 30 ft | 2 kts | 333° |
| 2026-05-05 02:14 | 30.24119 | 120.42885 | 32 ft | 0 kts | 333° |
| 2026-05-05 02:16 | 30.24120 | 120.42884 | 32 ft | 2 kts | 333° |
| 2026-05-05 02:16 | 30.24177 | 120.42850 | 32 ft | 16 kts | 333° |
| 2026-05-05 02:16 | 30.24280 | 120.42792 | 32 ft | 14 kts | 347° |
| 2026-05-05 02:17 | 30.24363 | 120.42793 | 30 ft | 11 kts | 340° |
| 2026-05-05 02:17 | 30.24414 | 120.42833 | 32 ft | 9 kts | 61° |
| 2026-05-05 02:17 | 30.24450 | 120.42911 | 32 ft | 16 kts | 63° |
| 2026-05-05 02:17 | 30.24504 | 120.43035 | 32 ft | 17 kts | 63° |
| 2026-05-05 02:18 | 30.24553 | 120.43146 | 32 ft | 15 kts | 63° |
| 2026-05-05 02:18 | 30.24599 | 120.43249 | 32 ft | 17 kts | 63° |
| 2026-05-05 02:18 | 30.24642 | 120.43367 | 32 ft | 11 kts | 92° |
| 2026-05-05 02:18 | 30.24583 | 120.43421 | 32 ft | 15 kts | 151° |
| 2026-05-05 02:19 | 30.24460 | 120.43493 | 32 ft | 23 kts | 153° |
| 2026-05-05 02:19 | 30.24314 | 120.43579 | 31 ft | 24 kts | 153° |
| 2026-05-05 02:19 | 30.24162 | 120.43668 | 32 ft | 25 kts | 153° |
| 2026-05-05 02:19 | 30.24004 | 120.43761 | 32 ft | 26 kts | 153° |
| 2026-05-05 02:20 | 30.23841 | 120.43856 | 31 ft | 27 kts | 153° |
| 2026-05-05 02:20 | 30.23674 | 120.43955 | 32 ft | 27 kts | 153° |
| 2026-05-05 02:20 | 30.23519 | 120.44048 | 32 ft | 22 kts | 150° |
| 2026-05-05 02:20 | 30.23457 | 120.44146 | 32 ft | 15 kts | 68° |
| 2026-05-05 02:21 | 30.23508 | 120.44263 | 32 ft | 21 kts | 63° |
| 2026-05-05 02:21 | 30.23585 | 120.44438 | 32 ft | 26 kts | 63° |
| 2026-05-05 02:21 | 30.23669 | 120.44628 | 32 ft | 27 kts | 63° |
| 2026-05-05 02:21 | 30.23757 | 120.44827 | 31 ft | 28 kts | 63° |
| 2026-05-05 02:22 | 30.23818 | 120.44967 | 32 ft | 12 kts | 64° |
| 2026-05-05 02:22 | 30.23791 | 120.45029 | 31 ft | 9 kts | 153° |
| 2026-05-05 02:22 | 30.23735 | 120.45062 | 30 ft | 9 kts | 152° |
| 2026-05-05 02:22 | 30.23687 | 120.45076 | 30 ft | 6 kts | 199° |
| 2026-05-05 02:23 | 30.23663 | 120.45045 | 30 ft | 0 kts | 242° |
| 2026-05-05 02:23 | 30.23610 | 120.44926 | 31 ft | 49 kts | 243° |
| 2026-05-05 02:23 | 30.23349 | 120.44337 | 31 ft | 113 kts | 243° |
| 2026-05-05 02:24 | 30.22910 | 120.43348 | 34 ft | 161 kts | 244° |
| 2026-05-05 02:24 | 30.22385 | 120.42133 | 474 ft | 171 kts | 241° |
| 2026-05-05 02:24 | 30.21797 | 120.40936 | 1209 ft | 170 kts | 230° |
| 2026-05-05 02:24 | 30.21024 | 120.39905 | 1923 ft | 173 kts | 224° |
| 2026-05-05 02:25 | 30.20145 | 120.38847 | 2294 ft | 193 kts | 224° |
| 2026-05-05 02:25 | 30.19156 | 120.37667 | 2604 ft | 216 kts | 224° |
| 2026-05-05 02:25 | 30.18069 | 120.36354 | 3187 ft | 232 kts | 225° |
| 2026-05-05 02:25 | 30.16950 | 120.34977 | 4020 ft | 238 kts | 225° |
| 2026-05-05 02:26 | 30.15811 | 120.33561 | 4831 ft | 244 kts | 225° |
| 2026-05-05 02:26 | 30.14647 | 120.32105 | 5620 ft | 249 kts | 225° |
| 2026-05-05 02:26 | 30.13465 | 120.30621 | 6460 ft | 253 kts | 226° |
| 2026-05-05 02:26 | 30.12266 | 120.29106 | 7254 ft | 257 kts | 226° |
| 2026-05-05 02:27 | 30.11054 | 120.27571 | 8064 ft | 260 kts | 227° |
| 2026-05-05 02:27 | 30.09846 | 120.26041 | 8889 ft | 262 kts | 227° |
| 2026-05-05 02:27 | 30.08485 | 120.24632 | 9605 ft | 268 kts | 210° |
| 2026-05-05 02:27 | 30.06726 | 120.23988 | 9807 ft | 267 kts | 182° |
| 2026-05-05 02:28 | 30.04912 | 120.24352 | 9840 ft | 267 kts | 156° |
| 2026-05-05 02:28 | 30.03259 | 120.25329 | 9843 ft | 267 kts | 153° |
| 2026-05-05 02:28 | 30.01715 | 120.26508 | 9835 ft | 267 kts | 132° |
| 2026-05-05 02:28 | 30.00851 | 120.28381 | 9862 ft | 269 kts | 100° |
| 2026-05-05 02:29 | 30.01023 | 120.30580 | 10145 ft | 288 kts | 68° |
| 2026-05-05 02:29 | 30.01979 | 120.32690 | 10481 ft | 309 kts | 61° |
| 2026-05-05 02:29 | 30.03027 | 120.34961 | 10711 ft | 332 kts | 62° |
| 2026-05-05 02:29 | 30.04118 | 120.37418 | 10906 ft | 356 kts | 63° |
| 2026-05-05 02:30 | 30.05267 | 120.40040 | 11160 ft | 374 kts | 63° |
| 2026-05-05 02:30 | 30.06453 | 120.42754 | 11708 ft | 382 kts | 63° |
| 2026-05-05 02:30 | 30.07659 | 120.45511 | 12350 ft | 387 kts | 63° |
| 2026-05-05 02:30 | 30.08887 | 120.48303 | 12993 ft | 392 kts | 62° |
| 2026-05-05 02:31 | 30.10126 | 120.51132 | 13615 ft | 397 kts | 64° |
| 2026-05-05 02:31 | 30.11043 | 120.54163 | 14165 ft | 404 kts | 77° |
| 2026-05-05 02:31 | 30.11349 | 120.57397 | 14700 ft | 408 kts | 91° |
| 2026-05-05 02:31 | 30.11014 | 120.60656 | 15245 ft | 411 kts | 104° |
| 2026-05-05 02:32 | 30.10083 | 120.63783 | 15774 ft | 413 kts | 114° |
| 2026-05-05 02:32 | 30.08999 | 120.66867 | 16323 ft | 417 kts | 114° |
| 2026-05-05 02:32 | 30.07904 | 120.69979 | 16848 ft | 420 kts | 114° |
| 2026-05-05 02:32 | 30.06795 | 120.73117 | 17378 ft | 424 kts | 114° |
| 2026-05-05 02:33 | 30.05677 | 120.76273 | 17884 ft | 427 kts | 114° |
| 2026-05-05 02:33 | 30.04749 | 120.79547 | 18386 ft | 433 kts | 103° |
| 2026-05-05 02:33 | 30.04399 | 120.83012 | 18819 ft | 438 kts | 91° |
| 2026-05-05 02:33 | 30.04664 | 120.86530 | 19241 ft | 443 kts | 79° |
| 2026-05-05 02:34 | 30.05546 | 120.89943 | 19664 ft | 446 kts | 67° |
| 2026-05-05 02:34 | 30.07016 | 120.93107 | 20086 ft | 449 kts | 54° |
| 2026-05-05 02:34 | 30.08859 | 120.96024 | 20500 ft | 452 kts | 52° |
| 2026-05-05 02:34 | 30.10738 | 120.98953 | 20877 ft | 456 kts | 52° |
| 2026-05-05 02:35 | 30.12634 | 121.01903 | 21281 ft | 459 kts | 52° |
| 2026-05-05 02:35 | 30.14544 | 121.04878 | 21680 ft | 462 kts | 52° |
| 2026-05-05 02:35 | 30.16462 | 121.07875 | 22067 ft | 466 kts | 52° |
| 2026-05-05 02:35 | 30.18393 | 121.10899 | 22450 ft | 469 kts | 52° |
| 2026-05-05 02:36 | 30.20333 | 121.13938 | 22831 ft | 472 kts | 52° |
| 2026-05-05 02:36 | 30.22288 | 121.17000 | 23191 ft | 475 kts | 52° |
| 2026-05-05 02:36 | 30.24256 | 121.20085 | 23545 ft | 478 kts | 52° |
| 2026-05-05 02:36 | 30.26226 | 121.23199 | 23853 ft | 482 kts | 53° |
| 2026-05-05 02:37 | 30.28147 | 121.26393 | 24106 ft | 486 kts | 54° |
| 2026-05-05 02:37 | 30.30024 | 121.29664 | 24361 ft | 490 kts | 56° |
| 2026-05-05 02:37 | 30.31857 | 121.32951 | 24617 ft | 494 kts | 56° |
| 2026-05-05 02:37 | 30.33739 | 121.36360 | 24875 ft | 498 kts | 56° |
| 2026-05-05 02:38 | 30.35617 | 121.39746 | 25116 ft | 501 kts | 56° |
| 2026-05-05 02:38 | 30.37497 | 121.43096 | 25385 ft | 504 kts | 56° |
| 2026-05-05 02:38 | 30.39457 | 121.46542 | 25673 ft | 507 kts | 55° |
| 2026-05-05 02:38 | 30.41385 | 121.49905 | 25924 ft | 510 kts | 55° |
| 2026-05-05 02:39 | 30.43356 | 121.53336 | 26128 ft | 513 kts | 55° |
| 2026-05-05 02:39 | 30.45340 | 121.56799 | 26308 ft | 518 kts | 55° |
| 2026-05-05 02:39 | 30.47332 | 121.60291 | 26521 ft | 521 kts | 55° |
| 2026-05-05 02:39 | 30.49332 | 121.63810 | 26754 ft | 524 kts | 55° |
| 2026-05-05 02:40 | 30.51340 | 121.67354 | 26980 ft | 527 kts | 55° |
| 2026-05-05 02:40 | 30.53358 | 121.70925 | 27221 ft | 530 kts | 55° |
| 2026-05-05 02:40 | 30.55369 | 121.74494 | 27679 ft | 528 kts | 55° |
| 2026-05-05 02:40 | 30.57374 | 121.78056 | 28075 ft | 527 kts | 55° |
| 2026-05-05 02:41 | 30.59381 | 121.81622 | 28338 ft | 529 kts | 55° |
| 2026-05-05 02:41 | 30.61405 | 121.85213 | 28513 ft | 533 kts | 55° |
| 2026-05-05 02:41 | 30.63441 | 121.88825 | 28788 ft | 535 kts | 55° |
| 2026-05-05 02:41 | 30.65482 | 121.92443 | 29090 ft | 537 kts | 55° |
| 2026-05-05 02:42 | 30.67535 | 121.96084 | 29203 ft | 540 kts | 55° |
| 2026-05-05 02:42 | 30.71647 | 122.03391 | 29216 ft | 537 kts | 55° |
| 2026-05-05 02:43 | 30.75758 | 122.10618 | 29227 ft | 536 kts | 50° |
| 2026-05-05 02:43 | 30.81000 | 122.16666 | 29224 ft | 528 kts | 31° |
| 2026-05-05 02:44 | 30.87352 | 122.20682 | 29224 ft | 514 kts | 14° |
| 2026-05-05 02:44 | 30.94140 | 122.23054 | 29249 ft | 508 kts | 9° |
| 2026-05-05 02:45 | 31.00919 | 122.25335 | 29242 ft | 508 kts | 11° |
| 2026-05-05 02:45 | 31.07604 | 122.28084 | 29234 ft | 511 kts | 15° |
| 2026-05-05 02:46 | 31.14195 | 122.31185 | 29259 ft | 510 kts | 17° |
| 2026-05-05 02:46 | 31.20769 | 122.34253 | 29256 ft | 507 kts | 16° |
| 2026-05-05 02:47 | 31.27319 | 122.37160 | 29215 ft | 507 kts | 14° |
| 2026-05-05 02:47 | 31.33926 | 122.40051 | 29247 ft | 507 kts | 15° |
| 2026-05-05 02:48 | 31.40577 | 122.42624 | 29245 ft | 498 kts | 5° |
| 2026-05-05 02:48 | 31.46261 | 122.43110 | 29238 ft | 483 kts | 349° |
| 2026-05-05 02:48 | 31.50593 | 122.42312 | 29233 ft | 470 kts | 338° |
| 2026-05-05 02:49 | 31.52686 | 122.41537 | 29259 ft | 464 kts | 332° |
| 2026-05-05 02:49 | 31.58656 | 122.38808 | 29239 ft | 464 kts | 332° |
| 2026-05-05 02:50 | 31.65685 | 122.35613 | 29233 ft | 463 kts | 332° |
| 2026-05-05 02:50 | 31.70680 | 122.33338 | 29238 ft | 463 kts | 333° |
| 2026-05-05 02:51 | 31.76680 | 122.30574 | 29229 ft | 462 kts | 332° |
| 2026-05-05 02:51 | 31.82582 | 122.27606 | 29225 ft | 461 kts | 331° |
| 2026-05-05 02:52 | 31.88511 | 122.24705 | 29213 ft | 462 kts | 333° |
| 2026-05-05 02:52 | 31.94531 | 122.22015 | 29208 ft | 463 kts | 334° |
| 2026-05-05 02:53 | 32.00566 | 122.19359 | 29202 ft | 463 kts | 334° |
| 2026-05-05 02:53 | 32.06579 | 122.16671 | 29193 ft | 462 kts | 334° |
| 2026-05-05 02:54 | 32.12581 | 122.13939 | 29193 ft | 463 kts | 334° |
| 2026-05-05 02:54 | 32.18581 | 122.11189 | 29194 ft | 462 kts | 334° |
| 2026-05-05 02:55 | 32.24585 | 122.08447 | 29191 ft | 462 kts | 334° |
| 2026-05-05 02:55 | 32.30587 | 122.05711 | 29193 ft | 462 kts | 335° |
| 2026-05-05 02:56 | 32.36587 | 122.02980 | 29206 ft | 462 kts | 336° |
| 2026-05-05 02:56 | 32.42582 | 122.00245 | 29201 ft | 462 kts | 336° |
| 2026-05-05 02:57 | 32.48574 | 121.97499 | 29195 ft | 462 kts | 336° |
| 2026-05-05 02:57 | 32.54562 | 121.94754 | 29186 ft | 462 kts | 336° |
| 2026-05-05 02:58 | 32.60555 | 121.92002 | 29200 ft | 462 kts | 336° |
| 2026-05-05 02:58 | 32.66508 | 121.89267 | 29199 ft | 462 kts | 336° |
| 2026-05-05 02:59 | 32.72500 | 121.86513 | 29198 ft | 462 kts | 336° |
| 2026-05-05 02:59 | 32.78488 | 121.83757 | 29191 ft | 461 kts | 336° |
| 2026-05-05 03:00 | 32.84470 | 121.80995 | 29172 ft | 461 kts | 336° |
| 2026-05-05 03:00 | 32.90445 | 121.78228 | 29200 ft | 460 kts | 336° |
| 2026-05-05 03:01 | 32.96409 | 121.75465 | 29200 ft | 460 kts | 336° |
| 2026-05-05 03:01 | 33.02364 | 121.72705 | 29188 ft | 459 kts | 336° |
| 2026-05-05 03:02 | 33.08318 | 121.69942 | 29191 ft | 459 kts | 336° |
| 2026-05-05 03:02 | 33.14268 | 121.67184 | 29187 ft | 459 kts | 336° |
| 2026-05-05 03:03 | 33.20213 | 121.64411 | 29195 ft | 458 kts | 336° |
| 2026-05-05 03:03 | 33.26150 | 121.61627 | 29181 ft | 458 kts | 335° |
| 2026-05-05 03:04 | 33.32022 | 121.58686 | 29176 ft | 457 kts | 334° |
| 2026-05-05 03:04 | 33.37851 | 121.55628 | 29170 ft | 457 kts | 333° |
| 2026-05-05 03:05 | 33.43675 | 121.52576 | 29183 ft | 457 kts | 333° |
| 2026-05-05 03:05 | 33.49477 | 121.49582 | 29171 ft | 457 kts | 334° |
| 2026-05-05 03:06 | 33.55320 | 121.46582 | 29171 ft | 457 kts | 334° |
| 2026-05-05 03:06 | 33.61156 | 121.43569 | 29167 ft | 457 kts | 334° |
| 2026-05-05 03:07 | 33.66991 | 121.40548 | 29176 ft | 457 kts | 333° |
| 2026-05-05 03:07 | 33.72877 | 121.37663 | 29168 ft | 457 kts | 335° |
| 2026-05-05 03:08 | 33.78817 | 121.34924 | 29159 ft | 457 kts | 336° |
| 2026-05-05 03:08 | 33.84757 | 121.32179 | 29157 ft | 457 kts | 335° |
| 2026-05-05 03:09 | 33.90679 | 121.29380 | 29151 ft | 457 kts | 335° |
| 2026-05-05 03:09 | 33.96586 | 121.26550 | 29164 ft | 457 kts | 335° |
| 2026-05-05 03:10 | 34.02493 | 121.23725 | 29168 ft | 457 kts | 335° |
| 2026-05-05 03:10 | 34.08406 | 121.20914 | 29170 ft | 457 kts | 335° |
| 2026-05-05 03:11 | 34.14316 | 121.18102 | 29156 ft | 456 kts | 335° |
| 2026-05-05 03:11 | 34.20224 | 121.15278 | 29164 ft | 456 kts | 336° |
| 2026-05-05 03:12 | 34.26090 | 121.12477 | 29158 ft | 456 kts | 336° |
| 2026-05-05 03:12 | 34.31992 | 121.09653 | 29153 ft | 456 kts | 336° |
| 2026-05-05 03:13 | 34.37885 | 121.06815 | 29144 ft | 456 kts | 336° |
| 2026-05-05 03:13 | 34.43782 | 121.03987 | 29147 ft | 456 kts | 336° |
| 2026-05-05 03:14 | 34.49680 | 121.01149 | 29138 ft | 456 kts | 336° |
| 2026-05-05 03:14 | 34.55572 | 120.98308 | 29131 ft | 456 kts | 336° |
| 2026-05-05 03:15 | 34.61461 | 120.95462 | 29131 ft | 456 kts | 336° |
| 2026-05-05 03:15 | 34.67352 | 120.92618 | 29124 ft | 456 kts | 336° |
| 2026-05-05 03:16 | 34.73241 | 120.89773 | 29123 ft | 456 kts | 336° |
| 2026-05-05 03:16 | 34.79132 | 120.86919 | 29125 ft | 456 kts | 336° |
| 2026-05-05 03:17 | 34.85023 | 120.84049 | 29126 ft | 456 kts | 336° |
| 2026-05-05 03:17 | 34.90911 | 120.81179 | 29126 ft | 456 kts | 336° |
| 2026-05-05 03:18 | 34.96804 | 120.78303 | 29134 ft | 456 kts | 336° |
| 2026-05-05 03:18 | 35.02655 | 120.75449 | 29129 ft | 456 kts | 336° |
| 2026-05-05 03:19 | 35.11480 | 120.71144 | 29116 ft | 455 kts | 336° |
| 2026-05-05 03:19 | 35.17361 | 120.68261 | 29113 ft | 455 kts | 336° |
| 2026-05-05 03:20 | 35.23251 | 120.65398 | 29116 ft | 456 kts | 337° |
| 2026-05-05 03:20 | 35.29148 | 120.62550 | 29122 ft | 455 kts | 337° |
| 2026-05-05 03:21 | 35.35032 | 120.59691 | 29120 ft | 454 kts | 336° |
| 2026-05-05 03:21 | 35.40900 | 120.56825 | 29125 ft | 454 kts | 337° |
| 2026-05-05 03:22 | 35.46776 | 120.53981 | 29125 ft | 454 kts | 338° |
| 2026-05-05 03:22 | 35.52651 | 120.51150 | 29116 ft | 453 kts | 338° |
| 2026-05-05 03:23 | 35.58522 | 120.48306 | 29115 ft | 453 kts | 337° |
| 2026-05-05 03:23 | 35.64382 | 120.45449 | 29112 ft | 453 kts | 337° |
| 2026-05-05 03:24 | 35.70232 | 120.42591 | 29121 ft | 452 kts | 338° |
| 2026-05-05 03:24 | 35.76072 | 120.39729 | 29115 ft | 451 kts | 338° |
| 2026-05-05 03:25 | 35.81915 | 120.36864 | 29101 ft | 452 kts | 338° |
| 2026-05-05 03:25 | 35.87773 | 120.33989 | 28520 ft | 454 kts | 338° |
| 2026-05-05 03:26 | 35.90740 | 120.32818 | 27992 ft | 455 kts | 348° |
| 2026-05-05 03:26 | 35.93927 | 120.32444 | 27457 ft | 455 kts | 1° |
| 2026-05-05 03:26 | 35.97020 | 120.32917 | 26941 ft | 454 kts | 13° |
| 2026-05-05 03:26 | 36.00006 | 120.34202 | 26430 ft | 458 kts | 25° |
| 2026-05-05 03:27 | 36.02720 | 120.36263 | 25915 ft | 460 kts | 37° |
| 2026-05-05 03:27 | 36.05035 | 120.39006 | 25437 ft | 463 kts | 46° |
| 2026-05-05 03:27 | 36.07239 | 120.41921 | 24963 ft | 465 kts | 43° |
| 2026-05-05 03:27 | 36.09747 | 120.44444 | 24487 ft | 465 kts | 33° |
| 2026-05-05 03:28 | 36.12567 | 120.46403 | 24016 ft | 466 kts | 24° |
| 2026-05-05 03:28 | 36.15621 | 120.47743 | 23548 ft | 465 kts | 14° |
| 2026-05-05 03:28 | 36.18790 | 120.48430 | 23002 ft | 461 kts | 5° |
| 2026-05-05 03:28 | 36.21995 | 120.48641 | 22462 ft | 461 kts | 2° |
| 2026-05-05 03:29 | 36.25192 | 120.48823 | 21951 ft | 459 kts | 3° |
| 2026-05-05 03:29 | 36.28375 | 120.49003 | 21583 ft | 458 kts | 3° |
| 2026-05-05 03:29 | 36.31552 | 120.49186 | 21223 ft | 456 kts | 3° |
| 2026-05-05 03:29 | 36.34715 | 120.49369 | 20866 ft | 454 kts | 4° |
| 2026-05-05 03:30 | 36.37834 | 120.49850 | 20509 ft | 449 kts | 12° |
| 2026-05-05 03:30 | 36.40840 | 120.50876 | 20157 ft | 448 kts | 20° |
| 2026-05-05 03:30 | 36.43757 | 120.52238 | 19822 ft | 447 kts | 21° |
| 2026-05-05 03:30 | 36.46662 | 120.53593 | 19486 ft | 445 kts | 21° |
| 2026-05-05 03:31 | 36.49555 | 120.54937 | 19142 ft | 444 kts | 21° |
| 2026-05-05 03:31 | 36.52510 | 120.56045 | 18812 ft | 444 kts | 15° |
| 2026-05-05 03:31 | 36.55565 | 120.56658 | 18505 ft | 446 kts | 9° |
| 2026-05-05 03:31 | 36.58641 | 120.57162 | 18211 ft | 445 kts | 8° |
| 2026-05-05 03:32 | 36.61712 | 120.57677 | 17891 ft | 445 kts | 9° |
| 2026-05-05 03:32 | 36.64765 | 120.58201 | 17565 ft | 441 kts | 8° |
| 2026-05-05 03:32 | 36.67797 | 120.58722 | 17252 ft | 439 kts | 8° |
| 2026-05-05 03:32 | 36.70818 | 120.59242 | 16943 ft | 437 kts | 8° |
| 2026-05-05 03:33 | 36.73825 | 120.59760 | 16629 ft | 435 kts | 8° |
| 2026-05-05 03:33 | 36.76825 | 120.60275 | 16324 ft | 435 kts | 8° |
| 2026-05-05 03:33 | 36.79815 | 120.60790 | 16015 ft | 432 kts | 8° |
| 2026-05-05 03:33 | 36.82790 | 120.61298 | 15721 ft | 431 kts | 9° |
| 2026-05-05 03:34 | 36.85752 | 120.61801 | 15428 ft | 429 kts | 8° |
| 2026-05-05 03:34 | 36.88691 | 120.62350 | 15131 ft | 425 kts | 12° |
| 2026-05-05 03:34 | 36.91529 | 120.63348 | 14852 ft | 423 kts | 21° |
| 2026-05-05 03:34 | 36.94163 | 120.64825 | 14568 ft | 420 kts | 29° |
| 2026-05-05 03:35 | 36.96620 | 120.66773 | 14278 ft | 417 kts | 37° |
| 2026-05-05 03:35 | 36.98887 | 120.69107 | 13990 ft | 416 kts | 40° |
| 2026-05-05 03:35 | 37.01092 | 120.71434 | 13701 ft | 414 kts | 40° |
| 2026-05-05 03:35 | 37.02551 | 120.72966 | 13484 ft | 413 kts | 40° |
| 2026-05-05 03:36 | 37.05455 | 120.76013 | 13079 ft | 409 kts | 40° |
| 2026-05-05 03:36 | 37.07632 | 120.78296 | 12766 ft | 407 kts | 40° |
| 2026-05-05 03:36 | 37.09795 | 120.80569 | 12451 ft | 405 kts | 40° |
| 2026-05-05 03:36 | 37.11948 | 120.82838 | 12148 ft | 403 kts | 40° |
| 2026-05-05 03:37 | 37.14083 | 120.85094 | 11846 ft | 401 kts | 39° |
| 2026-05-05 03:37 | 37.16393 | 120.87011 | 11541 ft | 397 kts | 24° |
| 2026-05-05 03:37 | 37.18111 | 120.87768 | 11341 ft | 395 kts | 14° |
| 2026-05-05 03:37 | 37.21757 | 120.88217 | 10949 ft | 395 kts | 357° |
| 2026-05-05 03:38 | 37.24467 | 120.87751 | 10650 ft | 393 kts | 346° |
| 2026-05-05 03:38 | 37.26189 | 120.87072 | 10459 ft | 391 kts | 339° |
| 2026-05-05 03:38 | 37.28599 | 120.85543 | 10173 ft | 386 kts | 331° |
| 2026-05-05 03:38 | 37.31055 | 120.84258 | 9889 ft | 379 kts | 345° |
| 2026-05-05 03:39 | 37.33621 | 120.83888 | 9578 ft | 367 kts | 1° |
| 2026-05-05 03:39 | 37.36076 | 120.84508 | 9265 ft | 356 kts | 19° |
| 2026-05-05 03:39 | 37.38199 | 120.86002 | 8960 ft | 347 kts | 36° |
| 2026-05-05 03:39 | 37.39849 | 120.88159 | 8646 ft | 339 kts | 53° |
| 2026-05-05 03:40 | 37.41203 | 120.90537 | 8339 ft | 330 kts | 50° |
| 2026-05-05 03:40 | 37.42700 | 120.92677 | 8036 ft | 322 kts | 43° |
| 2026-05-05 03:40 | 37.44308 | 120.94552 | 7910 ft | 308 kts | 39° |
| 2026-05-05 03:40 | 37.45859 | 120.96312 | 7920 ft | 293 kts | 39° |
| 2026-05-05 03:41 | 37.47352 | 120.98008 | 7917 ft | 287 kts | 39° |
| 2026-05-05 03:41 | 37.48833 | 120.99689 | 7917 ft | 286 kts | 40° |
| 2026-05-05 03:41 | 37.50309 | 121.01364 | 7919 ft | 286 kts | 40° |
| 2026-05-05 03:41 | 37.51784 | 121.03041 | 7916 ft | 286 kts | 41° |
| 2026-05-05 03:42 | 37.53262 | 121.04720 | 7915 ft | 286 kts | 39° |
| 2026-05-05 03:42 | 37.54741 | 121.06399 | 7871 ft | 287 kts | 40° |
| 2026-05-05 03:42 | 37.56214 | 121.08081 | 7583 ft | 285 kts | 40° |
| 2026-05-05 03:42 | 37.57678 | 121.09758 | 7294 ft | 284 kts | 40° |
| 2026-05-05 03:43 | 37.59142 | 121.11434 | 6986 ft | 284 kts | 39° |
| 2026-05-05 03:43 | 37.60610 | 121.13117 | 6697 ft | 286 kts | 39° |
| 2026-05-05 03:43 | 37.62088 | 121.14809 | 6423 ft | 291 kts | 38° |
| 2026-05-05 03:43 | 37.63592 | 121.16528 | 6127 ft | 290 kts | 41° |
| 2026-05-05 03:44 | 37.65064 | 121.18220 | 5841 ft | 283 kts | 40° |
| 2026-05-05 03:44 | 37.66499 | 121.19874 | 5600 ft | 276 kts | 40° |
| 2026-05-05 03:44 | 37.67900 | 121.21481 | 5347 ft | 269 kts | 38° |
| 2026-05-05 03:44 | 37.69494 | 121.22574 | 5104 ft | 258 kts | 11° |
| 2026-05-05 03:45 | 37.71223 | 121.22601 | 4846 ft | 244 kts | 341° |
| 2026-05-05 03:45 | 37.72696 | 121.21689 | 4601 ft | 232 kts | 316° |
| 2026-05-05 03:45 | 37.73796 | 121.20249 | 4323 ft | 224 kts | 308° |
| 2026-05-05 03:45 | 37.74834 | 121.18812 | 4007 ft | 218 kts | 307° |
| 2026-05-05 03:46 | 37.75850 | 121.17409 | 3689 ft | 215 kts | 307° |
| 2026-05-05 03:46 | 37.76780 | 121.15957 | 3252 ft | 211 kts | 292° |
| 2026-05-05 03:46 | 37.77272 | 121.14294 | 3061 ft | 195 kts | 274° |
| 2026-05-05 03:46 | 37.77329 | 121.12661 | 2916 ft | 178 kts | 258° |
| 2026-05-05 03:47 | 37.77043 | 121.11207 | 2755 ft | 165 kts | 243° |
| 2026-05-05 03:47 | 37.76496 | 121.09996 | 2576 ft | 154 kts | 229° |
| 2026-05-05 03:47 | 37.75772 | 121.09057 | 2404 ft | 146 kts | 220° |
| 2026-05-05 03:47 | 37.75039 | 121.08216 | 2228 ft | 138 kts | 219° |
| 2026-05-05 03:48 | 37.74357 | 121.07432 | 2073 ft | 129 kts | 218° |
| 2026-05-05 03:48 | 37.73699 | 121.06678 | 1889 ft | 127 kts | 217° |
| 2026-05-05 03:48 | 37.73048 | 121.05932 | 1721 ft | 126 kts | 217° |
| 2026-05-05 03:48 | 37.72405 | 121.05194 | 1556 ft | 124 kts | 216° |
| 2026-05-05 03:49 | 37.71763 | 121.04460 | 1393 ft | 124 kts | 216° |
| 2026-05-05 03:49 | 37.71125 | 121.03728 | 1220 ft | 124 kts | 217° |
| 2026-05-05 03:49 | 37.70487 | 121.02998 | 1060 ft | 124 kts | 215° |
| 2026-05-05 03:49 | 37.69851 | 121.02269 | 899 ft | 123 kts | 215° |
| 2026-05-05 03:50 | 37.69218 | 121.01544 | 720 ft | 123 kts | 218° |
| 2026-05-05 03:50 | 37.68582 | 121.00805 | 559 ft | 124 kts | 216° |
| 2026-05-05 03:50 | 37.67939 | 121.00077 | 394 ft | 128 kts | 218° |
| 2026-05-05 03:50 | 37.67276 | 120.99308 | 255 ft | 128 kts | 216° |
| 2026-05-05 03:51 | 37.66642 | 120.98586 | 168 ft | 112 kts | 216° |
| 2026-05-05 03:51 | 37.66082 | 120.97940 | 404 ft | 114 kts | 215° |
| 2026-05-05 03:51 | 37.65445 | 120.97245 | 983 ft | 131 kts | 210° |
| 2026-05-05 03:51 | 37.64719 | 120.96422 | 1525 ft | 149 kts | 216° |
| 2026-05-05 03:52 | 37.63838 | 120.95577 | 2074 ft | 167 kts | 203° |
| 2026-05-05 03:52 | 37.62649 | 120.95407 | 2469 ft | 189 kts | 171° |
| 2026-05-05 03:52 | 37.61455 | 120.96339 | 3006 ft | 212 kts | 142° |
| 2026-05-05 03:52 | 37.60382 | 120.97651 | 3696 ft | 218 kts | 142° |
| 2026-05-05 03:53 | 37.59289 | 120.99012 | 4470 ft | 224 kts | 140° |
| 2026-05-05 03:53 | 37.58146 | 121.00435 | 4833 ft | 235 kts | 138° |
| 2026-05-05 03:53 | 37.56995 | 121.01861 | 4902 ft | 235 kts | 141° |
| 2026-05-05 03:53 | 37.55836 | 121.03317 | 4907 ft | 236 kts | 133° |
| 2026-05-05 03:54 | 37.55159 | 121.05194 | 4905 ft | 243 kts | 96° |
| 2026-05-05 03:54 | 37.55555 | 121.07245 | 4905 ft | 244 kts | 54° |
| 2026-05-05 03:54 | 37.56717 | 121.08782 | 4920 ft | 244 kts | 40° |
| 2026-05-05 03:54 | 37.57965 | 121.10202 | 4907 ft | 240 kts | 40° |
| 2026-05-05 03:55 | 37.59216 | 121.11605 | 4903 ft | 241 kts | 39° |
| 2026-05-05 03:55 | 37.60479 | 121.13026 | 4911 ft | 243 kts | 40° |
| 2026-05-05 03:55 | 37.61738 | 121.14449 | 4915 ft | 245 kts | 40° |
| 2026-05-05 03:55 | 37.63012 | 121.15895 | 4916 ft | 247 kts | 41° |
| 2026-05-05 03:56 | 37.64275 | 121.17341 | 4902 ft | 245 kts | 40° |
| 2026-05-05 03:56 | 37.65533 | 121.18781 | 4906 ft | 242 kts | 41° |
| 2026-05-05 03:56 | 37.66774 | 121.20201 | 4906 ft | 241 kts | 41° |
| 2026-05-05 03:56 | 37.68026 | 121.21635 | 4912 ft | 244 kts | 41° |
| 2026-05-05 03:57 | 37.69431 | 121.22786 | 4896 ft | 242 kts | 14° |
| 2026-05-05 03:57 | 37.71075 | 121.22925 | 4631 ft | 235 kts | 341° |
| 2026-05-05 03:57 | 37.72477 | 121.22026 | 4326 ft | 222 kts | 310° |
| 2026-05-05 03:57 | 37.73522 | 121.20612 | 4043 ft | 220 kts | 305° |
| 2026-05-05 03:58 | 37.74558 | 121.19178 | 3746 ft | 221 kts | 307° |
| 2026-05-05 03:58 | 37.75603 | 121.17740 | 3441 ft | 223 kts | 307° |
| 2026-05-05 03:58 | 37.76589 | 121.16244 | 3148 ft | 219 kts | 293° |
| 2026-05-05 03:58 | 37.77147 | 121.14542 | 3021 ft | 203 kts | 275° |
| 2026-05-05 03:59 | 37.77256 | 121.12834 | 2897 ft | 189 kts | 259° |
| 2026-05-05 03:59 | 37.76992 | 121.11286 | 2765 ft | 174 kts | 244° |
| 2026-05-05 03:59 | 37.76438 | 121.09970 | 2574 ft | 167 kts | 230° |
| 2026-05-05 03:59 | 37.75656 | 121.08921 | 2376 ft | 163 kts | 220° |
| 2026-05-05 04:00 | 37.74798 | 121.07939 | 2158 ft | 164 kts | 219° |
| 2026-05-05 04:00 | 37.73993 | 121.07014 | 1961 ft | 149 kts | 218° |
| 2026-05-05 04:00 | 37.73269 | 121.06182 | 1783 ft | 134 kts | 217° |
| 2026-05-05 04:00 | 37.72600 | 121.05415 | 1603 ft | 127 kts | 216° |
| 2026-05-05 04:01 | 37.71937 | 121.04658 | 1432 ft | 129 kts | 217° |
| 2026-05-05 04:01 | 37.71271 | 121.03896 | 1258 ft | 129 kts | 216° |
| 2026-05-05 04:01 | 37.70605 | 121.03133 | 1084 ft | 129 kts | 216° |
| 2026-05-05 04:01 | 37.69939 | 121.02370 | 920 ft | 129 kts | 216° |
| 2026-05-05 04:02 | 37.69280 | 121.01608 | 745 ft | 128 kts | 218° |
| 2026-05-05 04:02 | 37.68621 | 121.00851 | 588 ft | 128 kts | 217° |
| 2026-05-05 04:02 | 37.67951 | 121.00103 | 417 ft | 133 kts | 219° |
| 2026-05-05 04:02 | 37.67265 | 120.99291 | 273 ft | 134 kts | 214° |
| 2026-05-05 04:03 | 37.66587 | 120.98529 | 170 ft | 125 kts | 216° |
| 2026-05-05 04:03 | 37.66018 | 120.97863 | 175 ft | 100 kts | 215° |